Time;durP1;ratioP1;P1;durP2;ratioP2;P2;SDS_P1;SDS_P2;PMS_P1;PMS_P2;Temp;Humidity;BMP_temperature;BMP_pressure;BME280_temperature;BME280_humidity;BME280_pressure;Samples;Min_cycle;Max_cycle;Signal;HPM_P1;HPM_P2
2021/03/31 00:00:59;;;;;;;11.40;6.72;;;;;;;6.92;75.36;102735.63;5032640;28;21841;-84
2021/03/31 00:03:25;;;;;;;11.57;7.00;;;;;;;6.87;75.19;102731.84;5068341;28;20030;-84
2021/03/31 00:05:59;;;;;;;15.18;7.63;;;;;;;6.75;75.14;102734.06;5048757;28;20036;-84
2021/03/31 00:08:35;;;;;;;20.33;9.23;;;;;;;6.71;75.65;102727.41;5053170;28;20039;-84
2021/03/31 00:11:39;;;;;;;23.40;10.98;;;;;;;6.64;75.88;102731.75;5048447;28;20119;-84
2021/03/31 00:14:25;;;;;;;;;;;;;;;;;;;;;
2021/03/31 00:17:20;;;;;;;;;;;;;;;;;;;;;
2021/03/31 00:20:20;;;;;;;;;;;;;;;;;;;;;
2021/03/31 00:22:48;;;;;;;15.82;9.55;;;;;;;6.41;75.45;102728.22;5065594;28;20033;-84
2021/03/31 00:25:50;;;;;;;27.85;13.80;;;;;;;6.01;86.35;102737.97;5048755;28;20105;-84
2021/03/31 00:28:32;;;;;;;;;;;;;;;;;;;;;
2021/03/31 00:31:21;;;;;;;22.05;11.35;;;;;;;6.06;83.10;102735.63;5070626;28;20508;-83
2021/03/31 00:34:12;;;;;;;18.60;10.18;;;;;;;6.15;81.27;102725.81;5048543;28;20032;-84
2021/03/31 00:36:38;;;;;;;16.77;9.50;;;;;;;6.18;79.74;102726.28;5068145;28;20089;-84
2021/03/31 00:42:31;;;;;;;26.00;14.88;;;;;;;6.11;78.91;102727.97;5060071;28;20115;-83
2021/03/31 00:45:25;;;;;;;22.45;11.43;;;;;;;6.06;79.44;102714.34;5047872;28;20037;-84
2021/03/31 00:48:16;;;;;;;18.45;11.35;;;;;;;6.08;79.25;102709.66;5066444;28;20515;-83
2021/03/31 00:50:50;;;;;;;23.67;12.65;;;;;;;6.15;78.55;102713.34;5062395;28;20116;-84
2021/03/31 00:53:23;;;;;;;14.63;10.02;;;;;;;6.18;77.77;102715.66;5050301;28;20027;-84
2021/03/31 00:56:24;;;;;;;17.00;10.73;;;;;;;5.98;77.76;102706.38;5068144;28;20021;-84
2021/03/31 00:59:12;;;;;;;14.02;9.13;;;;;;;5.92;77.62;102707.03;5049754;28;20032;-84
2021/03/31 01:02:00;;;;;;;14.65;9.77;;;;;;;5.83;77.39;102705.38;5048528;28;20044;-83
2021/03/31 01:07:57;;;;;;;22.70;12.38;;;;;;;5.56;81.61;102699.41;5004358;28;20034;-84
2021/03/31 01:10:51;;;;;;;19.77;11.60;;;;;;;5.61;79.95;102707.75;4989876;28;20052;-83
2021/03/31 01:14:18;;;;;;;20.85;12.10;;;;;;;5.57;79.46;102702.94;4996643;28;20037;-84
2021/03/31 01:17:31;;;;;;;14.55;9.15;;;;;;;5.50;78.13;102713.38;4974696;28;20131;-83
2021/03/31 01:20:52;;;;;;;16.73;9.13;;;;;;;5.41;77.88;102714.41;5058691;28;20517;-84
2021/03/31 01:23:42;;;;;;;19.75;11.32;;;;;;;5.36;78.40;102716.69;5042388;28;20071;-84
2021/03/31 01:26:29;;;;;;;18.70;9.98;;;;;;;5.40;78.40;102720.72;5066924;28;20035;-83
2021/03/31 01:29:34;;;;;;;20.30;11.95;;;;;;;5.33;82.69;102712.53;5052365;28;20042;-84
2021/03/31 01:32:47;;;;;;;25.20;12.53;;;;;;;5.19;84.51;102715.84;5046221;28;20044;-84
2021/03/31 01:35:21;;;;;;;23.58;10.23;;;;;;;5.32;81.34;102715.38;5065818;28;20029;-84
2021/03/31 01:38:17;;;;;;;16.10;7.38;;;;;;;5.31;79.46;102724.34;5053565;28;20070;-84
2021/03/31 01:41:10;;;;;;;12.23;7.43;;;;;;;5.28;78.43;102711.38;5073388;28;20114;-83
2021/03/31 01:43:58;;;;;;;7.22;4.47;;;;;;;5.21;78.17;102708.56;5050514;28;20062;-83
2021/03/31 01:46:35;;;;;;;13.02;8.23;;;;;;;5.06;78.66;102711.03;5046749;28;20131;-83
2021/03/31 01:49:12;;;;;;;11.55;6.13;;;;;;;5.04;78.39;102712.19;5053275;28;20050;-84
2021/03/31 01:51:45;;;;;;;6.72;5.40;;;;;;;5.02;78.54;102709.69;5049635;28;20147;-84
2021/03/31 01:54:11;;;;;;;6.88;3.97;;;;;;;4.93;78.28;102715.16;5046964;28;20040;-83
2021/03/31 01:57:11;;;;;;;9.45;6.03;;;;;;;4.81;78.65;102715.44;5051374;28;20021;-84
2021/03/31 01:59:57;;;;;;;6.72;5.00;;;;;;;4.87;78.65;102714.00;5025535;28;20037;-84
2021/03/31 02:02:47;;;;;;;10.32;5.07;;;;;;;4.75;78.78;102707.31;5063577;28;20044;-84
2021/03/31 02:05:37;;;;;;;9.82;6.35;;;;;;;4.77;78.70;102705.31;5049127;28;20033;-84
2021/03/31 02:08:39;;;;;;;;;;;;;;;;;;;;;
2021/03/31 02:12:01;;;;;;;;;;;;;;;;;;;;;
2021/03/31 02:14:47;;;;;;;14.02;8.80;;;;;;;4.63;78.70;102703.28;5065321;28;20024;-82
2021/03/31 02:18:19;;;;;;;11.18;7.43;;;;;;;4.53;79.48;102696.28;5062018;28;20092;-83
2021/03/31 02:21:22;;;;;;;13.10;7.15;;;;;;;4.53;78.93;102688.31;5051866;28;20036;-83
2021/03/31 02:24:08;;;;;;;11.60;6.80;;;;;;;4.55;78.58;102702.28;5043125;28;20036;-83
2021/03/31 02:26:41;;;;;;;10.00;6.28;;;;;;;4.55;78.17;102696.13;5065442;28;20040;-83
2021/03/31 02:29:15;;;;;;;13.27;7.55;;;;;;;4.49;78.31;102696.78;5046598;28;20663;-83
2021/03/31 02:35:10;;;;;;;12.40;7.10;;;;;;;4.38;77.91;102715.63;4981859;28;20038;-83
2021/03/31 02:38:19;;;;;;;15.15;7.70;;;;;;;4.26;78.57;102712.41;5057818;28;20029;-84
2021/03/31 02:41:12;;;;;;;9.57;6.18;;;;;;;4.18;78.38;102705.25;5014996;28;20043;-83
2021/03/31 02:44:06;;;;;;;8.20;4.97;;;;;;;4.12;78.35;102703.22;5043526;28;20437;-83
2021/03/31 02:47:06;;;;;;;8.48;5.00;;;;;;;4.11;78.16;102693.59;5051015;28;20029;-84
2021/03/31 02:50:23;;;;;;;13.75;7.57;;;;;;;4.15;77.87;102694.97;5052364;28;20513;-84
2021/03/31 02:53:02;;;;;;;19.70;8.90;;;;;;;4.22;77.78;102698.63;5042485;28;20126;-83
2021/03/31 02:55:50;;;;;;;;;;;;;;;;;;;;;
2021/03/31 02:58:45;;;;;;;16.25;8.93;;;;;;;4.24;77.99;102695.81;5066036;28;20040;-84
2021/03/31 03:01:37;;;;;;;;;;;;;;;;;;;;;
2021/03/31 03:04:22;;;;;;;;;;;;;;;;;;;;;
2021/03/31 03:07:07;;;;;;;14.93;8.32;;;;;;;3.99;78.44;102689.56;5070064;28;20514;-83
2021/03/31 03:10:01;;;;;;;11.98;6.13;;;;;;;3.88;77.96;102689.81;5047977;28;20075;-83
2021/03/31 03:12:29;;;;;;;7.22;4.85;;;;;;;3.82;78.38;102683.34;5049006;28;20033;-82
2021/03/31 03:15:22;;;;;;;;;;;;;;;;;;;;;
2021/03/31 03:18:39;;;;;;;8.88;4.40;;;;;;;3.76;78.27;102683.94;5066064;28;20032;-83
2021/03/31 03:21:28;;;;;;;10.48;5.10;;;;;;;3.63;78.50;102683.53;5055518;28;20042;-84
2021/03/31 03:24:12;;;;;;;15.82;6.80;;;;;;;3.56;78.30;102682.47;5053882;28;20502;-84
2021/03/31 03:27:07;;;;;;;12.20;7.00;;;;;;;3.51;78.54;102682.13;5051395;28;20525;-83
2021/03/31 03:30:29;;;;;;;20.13;11.55;;;;;;;3.43;80.16;102676.78;5069360;28;20029;-83
2021/03/31 03:32:54;;;;;;;19.73;10.68;;;;;;;3.48;79.89;102672.66;5065044;28;20037;-84
2021/03/31 03:38:49;;;;;;;15.65;9.25;;;;;;;3.56;78.95;102664.75;5071694;28;20498;-83
2021/03/31 03:41:29;;;;;;;;;;;;;;;3.44;79.17;102667.84;5052488;28;20049;-83
2021/03/31 03:43:57;;;;;;;15.70;9.13;;;;;;;3.43;78.87;102668.81;5050083;28;19919;-83
2021/03/31 03:46:32;;;;;;;14.07;7.70;;;;;;;3.38;78.80;102668.44;5032390;28;20029;-84
2021/03/31 03:49:31;;;;;;;23.50;12.03;;;;;;;3.31;79.57;102668.22;5033047;28;20032;-83
2021/03/31 03:52:04;;;;;;;18.83;10.10;;;;;;;3.29;79.85;102673.66;5051084;28;20528;-84
2021/03/31 03:54:32;;;;;;;16.05;9.27;;;;;;;3.33;79.43;102661.78;5071886;28;20027;-82
2021/03/31 03:57:12;;;;;;;18.38;9.43;;;;;;;3.28;79.73;102664.06;5055362;28;20028;-83
2021/03/31 03:59:55;;;;;;;17.52;9.00;;;;;;;3.31;79.40;102668.22;5049146;28;20029;-84
2021/03/31 04:02:35;;;;;;;16.63;10.23;;;;;;;3.26;79.29;102665.19;5074628;28;20024;-83
2021/03/31 04:05:23;;;;;;;17.50;8.77;;;;;;;3.25;79.31;102667.03;5061036;28;20035;-84
2021/03/31 04:08:05;;;;;;;16.75;9.45;;;;;;;3.20;79.54;102660.50;5071040;28;20056;-84
2021/03/31 04:10:39;;;;;;;17.95;8.85;;;;;;;3.19;79.80;102658.84;5051291;28;20052;-84
2021/03/31 04:13:17;;;;;;;16.70;8.30;;;;;;;3.17;79.38;102666.09;5057030;28;20052;-84
2021/03/31 04:16:03;;;;;;;16.20;9.13;;;;;;;3.22;78.71;102664.66;5055568;28;20290;-83
2021/03/31 04:18:49;;;;;;;19.40;9.25;;;;;;;3.16;78.90;102667.91;5056323;28;20044;-84
2021/03/31 04:21:18;;;;;;;16.42;8.85;;;;;;;3.07;78.95;102654.78;5072207;28;20363;-83
2021/03/31 04:23:52;;;;;;;9.68;6.40;;;;;;;2.98;78.92;102656.50;5054402;28;20493;-84
2021/03/31 04:26:32;;;;;;;11.02;5.50;;;;;;;2.92;79.33;102649.16;5050126;28;20040;-83
2021/03/31 04:29:01;;;;;;;9.98;4.82;;;;;;;2.93;79.20;102664.06;5052803;28;20430;-84
2021/03/31 04:32:13;;;;;;;7.80;5.05;;;;;;;2.80;79.75;102648.56;5054130;28;20020;-83
2021/03/31 04:35:03;;;;;;;13.15;6.13;;;;;;;2.86;79.48;102652.41;5018573;28;20025;-84
2021/03/31 04:37:32;;;;;;;14.50;8.55;;;;;;;2.83;80.27;102650.06;5053247;28;20039;-83
2021/03/31 04:40:13;;;;;;;13.52;8.52;;;;;;;2.84;79.89;102649.06;5053193;28;20029;-84
2021/03/31 04:42:49;;;;;;;12.15;6.70;;;;;;;2.81;79.71;102647.56;5052385;28;20032;-84
2021/03/31 04:45:25;;;;;;;6.38;4.85;;;;;;;2.80;79.46;102650.38;5067730;28;20023;-84
2021/03/31 04:48:06;;;;;;;9.25;6.05;;;;;;;2.76;79.35;102646.38;5057330;28;20028;-84
2021/03/31 04:50:49;;;;;;;8.43;5.63;;;;;;;2.70;79.25;102638.06;5052713;28;20031;-83
2021/03/31 04:53:27;;;;;;;25.63;10.35;;;;;;;2.68;79.33;102639.97;5073196;28;20039;-83
2021/03/31 04:56:04;;;;;;;21.52;8.93;;;;;;;2.71;79.67;102634.41;5055346;28;20097;-84
2021/03/31 04:58:52;;;;;;;19.48;8.68;;;;;;;2.66;82.17;102638.47;5049975;28;20020;-84
2021/03/31 05:01:29;;;;;;;15.32;8.35;;;;;;;2.78;80.26;102639.09;5074771;28;20028;-84
2021/03/31 05:04:02;;;;;;;15.77;9.45;;;;;;;2.86;79.47;102636.53;5067132;28;20498;-82
2021/03/31 05:07:06;;;;;;;;;;;;;;;;;;;;;
2021/03/31 05:09:32;;;;;;;13.48;7.15;;;;;;;2.98;78.66;102630.84;5068966;28;20496;-84
2021/03/31 05:12:01;;;;;;;16.42;8.13;;;;;;;3.00;79.33;102638.63;5081137;28;20102;-86
2021/03/31 05:14:40;;;;;;;20.58;9.35;;;;;;;3.04;78.78;102624.94;5059956;28;20044;-83
2021/03/31 05:17:11;;;;;;;15.75;8.35;;;;;;;3.11;79.19;102630.47;5053610;28;20028;-83
2021/03/31 05:19:39;;;;;;;20.38;9.95;;;;;;;3.23;78.39;102626.59;5044651;28;20025;-83
2021/03/31 05:25:15;;;;;;;21.80;9.70;;;;;;;3.52;78.52;102622.81;5064775;28;20047;-83
2021/03/31 05:27:43;;;;;;;18.55;8.63;;;;;;;3.72;77.13;102624.25;5055620;28;20032;-84
2021/03/31 05:30:20;;;;;;;18.65;8.40;;;;;;;3.88;76.39;102631.47;5054354;28;20203;-84
2021/03/31 05:32:51;;;;;;;19.33;9.95;;;;;;;4.03;76.47;102615.81;5050280;28;20051;-84
2021/03/31 05:35:22;;;;;;;22.98;11.27;;;;;;;4.17;76.63;102618.69;5070513;28;20021;-83
2021/03/31 05:38:10;;;;;;;25.98;12.40;;;;;;;4.37;76.91;102615.78;5068749;28;20042;-84
2021/03/31 05:41:06;;;;;;;25.85;12.38;;;;;;;4.58;76.43;102610.00;5065954;28;20081;-83
2021/03/31 05:43:44;;;;;;;21.45;12.63;;;;;;;4.68;80.58;102611.53;5043186;28;20124;-83
2021/03/31 05:46:32;;;;;;;;;;;;;;;;;;;;;
2021/03/31 05:49:06;;;;;;;24.73;11.45;;;;;;;6.00;74.18;102608.59;5045822;28;20201;-84
2021/03/31 05:51:47;;;;;;;;;;;;;;;;;;;;;
2021/03/31 05:54:21;;;;;;;23.90;12.10;;;;;;;7.57;68.06;102619.66;5066953;28;20031;-83
2021/03/31 05:57:00;;;;;;;;;;;;;;;;;;;;;
2021/03/31 05:59:36;;;;;;;26.80;10.68;;;;;;;8.86;64.63;102615.50;5068725;28;20644;-83
2021/03/31 06:02:21;;;;;;;20.50;11.27;;;;;;;9.06;63.45;102613.84;5051366;28;20581;-83
2021/03/31 06:04:48;;;;;;;19.67;10.50;;;;;;;8.68;65.41;102616.78;5068532;28;20032;-84
2021/03/31 06:07:14;;;;;;;20.02;12.27;;;;;;;8.34;67.60;102617.44;5050076;28;20347;-84
2021/03/31 06:10:13;;;;;;;24.48;11.90;;;;;;;8.13;70.33;102612.81;5049064;28;20473;-84
2021/03/31 06:13:20;;;;;;;24.63;12.52;;;;;;;7.88;73.60;102617.63;5070211;28;20040;-89
2021/03/31 06:15:52;;;;;;;29.95;12.10;;;;;;;7.97;73.11;102609.53;5066361;28;20571;-87
2021/03/31 06:18:18;;;;;;;23.77;13.07;;;;;;;7.40;78.71;102618.97;5052768;28;20027;-85
2021/03/31 06:21:05;;;;;;;23.38;13.27;;;;;;;7.48;79.39;102613.56;5068878;28;20028;-83
2021/03/31 06:24:30;;;;;;;23.85;13.30;;;;;;;7.38;82.04;102612.19;5064176;28;20043;-86
2021/03/31 06:40:08;;;;;;;18.88;11.85;;;;;;;8.30;81.81;102621.47;5145183;22;20105;-86
2021/03/31 06:42:45;;;;;;;19.33;12.43;;;;;;;8.56;81.08;102612.94;5068612;28;20050;-89
2021/03/31 06:50:14;;;;;;;19.75;12.05;;;;;;;8.78;82.80;102600.41;5064943;28;20079;-87
2021/03/31 06:52:56;;;;;;;22.58;11.95;;;;;;;8.97;82.86;102609.63;5043608;28;20119;-85
2021/03/31 06:55:23;;;;;;;21.42;11.68;;;;;;;9.08;81.76;102606.47;5047771;28;20043;-85
2021/03/31 06:58:00;;;;;;;19.55;11.57;;;;;;;9.44;80.12;102609.00;5063991;28;20377;-85
2021/03/31 07:00:30;;;;;;;18.67;12.32;;;;;;;9.42;80.86;102604.88;5045776;28;20028;-85
2021/03/31 07:03:03;;;;;;;17.17;11.73;;;;;;;9.63;79.64;102597.59;5046095;28;20557;-87
2021/03/31 07:05:33;;;;;;;16.05;10.30;;;;;;;9.77;78.98;102601.19;5037894;28;20040;-88
2021/03/31 07:08:07;;;;;;;17.20;10.88;;;;;;;10.12;77.29;102591.28;5042371;28;20283;-88
2021/03/31 07:10:44;;;;;;;18.20;10.30;;;;;;;10.19;77.85;102585.94;5050176;28;20040;-88
2021/03/31 07:13:10;;;;;;;17.25;10.68;;;;;;;10.59;75.58;102592.25;5043547;28;20024;-88
2021/03/31 07:15:36;;;;;;;19.17;10.88;;;;;;;10.80;75.36;102585.91;5043283;28;20016;-88
2021/03/31 07:18:02;;;;;;;19.33;11.77;;;;;;;10.98;74.92;102591.50;5060893;28;20062;-88
2021/03/31 07:20:30;;;;;;;18.63;11.23;;;;;;;10.69;76.41;102583.81;5061999;28;20056;-87
2021/03/31 07:22:59;;;;;;;17.98;10.05;;;;;;;11.16;74.74;102593.56;5046094;28;20024;-87
2021/03/31 07:25:25;;;;;;;17.05;9.68;;;;;;;11.41;73.51;102591.88;5044392;28;20017;-88
2021/03/31 07:27:54;;;;;;;17.70;10.13;;;;;;;11.57;73.12;102579.88;5046198;28;20536;-87
2021/03/31 07:30:22;;;;;;;18.52;10.23;;;;;;;11.54;74.31;102582.16;5051939;28;20021;-88
2021/03/31 07:33:02;;;;;;;16.13;10.63;;;;;;;11.69;74.05;102577.38;5052933;28;20024;-88
2021/03/31 07:35:29;;;;;;;16.90;10.07;;;;;;;11.81;73.61;102586.44;5050053;28;20502;-88
2021/03/31 07:38:00;;;;;;;18.00;10.90;;;;;;;11.84;74.45;102574.47;5046018;28;20028;-88
2021/03/31 07:40:26;;;;;;;17.00;10.48;;;;;;;12.07;73.18;102574.81;5046264;28;20481;-86
2021/03/31 07:43:11;;;;;;;16.58;9.93;;;;;;;12.19;73.23;102569.56;5047024;28;20032;-87
2021/03/31 07:45:44;;;;;;;18.30;10.60;;;;;;;12.71;71.24;102576.50;5071187;28;20029;-88
2021/03/31 07:48:10;;;;;;;15.32;9.95;;;;;;;13.04;70.07;102575.41;5048608;28;20147;-88
2021/03/31 07:50:38;;;;;;;14.90;9.75;;;;;;;13.17;69.13;102578.81;5054385;28;20113;-88
2021/03/31 07:53:06;;;;;;;16.15;9.40;;;;;;;13.24;69.44;102579.59;5052383;28;20044;-88
2021/03/31 07:55:38;;;;;;;17.58;9.48;;;;;;;13.58;68.38;102577.41;5052541;28;20035;-88
2021/03/31 07:58:13;;;;;;;14.98;8.50;;;;;;;13.53;68.15;102578.09;5048645;28;20041;-87
2021/03/31 08:03:27;;;;;;;14.32;8.27;;;;;;;14.25;66.41;102572.06;5068438;28;20047;-88
2021/03/31 08:06:12;;;;;;;13.10;8.27;;;;;;;14.47;65.28;102567.84;5048092;28;20766;-88
2021/03/31 08:08:43;;;;;;;12.88;7.80;;;;;;;14.50;64.86;102575.47;5049662;28;20172;-87
2021/03/31 08:11:12;;;;;;;13.27;7.85;;;;;;;14.74;64.13;102571.78;5050798;28;20086;-87
2021/03/31 08:13:40;;;;;;;15.48;8.07;;;;;;;14.89;63.27;102568.63;5053226;28;20040;-88
2021/03/31 08:16:27;;;;;;;10.90;7.63;;;;;;;15.11;62.38;102577.84;5045073;28;20389;-89
2021/03/31 08:18:55;;;;;;;16.77;9.27;;;;;;;15.29;62.14;102579.59;5050452;28;20063;-88
2021/03/31 08:21:22;;;;;;;12.05;8.10;;;;;;;15.39;61.59;102579.81;5077602;28;20020;-88
2021/03/31 08:23:49;;;;;;;13.00;8.07;;;;;;;15.51;61.04;102585.22;5067625;28;20195;-88
2021/03/31 08:26:35;;;;;;;15.50;8.93;;;;;;;15.69;60.75;102573.47;5055221;28;20036;-87
2021/03/31 08:29:07;;;;;;;12.30;8.55;;;;;;;15.86;60.39;102563.56;5050423;28;20060;-87
2021/03/31 08:31:46;;;;;;;14.40;8.13;;;;;;;16.07;60.02;102570.22;5056270;28;20036;-92
2021/03/31 08:34:14;;;;;;;14.88;9.18;;;;;;;16.25;60.02;102567.31;5055909;28;20418;-90
2021/03/31 08:36:41;;;;;;;13.30;8.13;;;;;;;15.65;59.94;102567.75;5045260;28;20070;-86
2021/03/31 08:39:09;;;;;;;17.70;8.57;;;;;;;15.85;60.56;102558.41;5049312;28;20025;-85
2021/03/31 08:41:41;;;;;;;14.27;8.35;;;;;;;16.05;59.41;102556.09;5048581;28;20032;-90
2021/03/31 08:44:29;;;;;;;16.90;9.07;;;;;;;16.41;59.55;102556.78;5048536;28;20020;-89
2021/03/31 08:47:07;;;;;;;11.80;7.55;;;;;;;16.26;58.90;102554.59;5066996;28;20111;-91
2021/03/31 08:49:33;;;;;;;15.02;8.07;;;;;;;16.58;58.51;102547.63;5043280;28;20025;-89
2021/03/31 08:52:01;;;;;;;11.43;8.10;;;;;;;16.74;57.59;102550.63;5038548;28;20031;-91
2021/03/31 08:54:43;;;;;;;17.67;8.45;;;;;;;16.62;57.01;102547.94;5040755;28;20389;-91
2021/03/31 08:57:15;;;;;;;14.20;8.75;;;;;;;16.97;56.60;102545.03;5045079;28;20236;-90
2021/03/31 08:59:51;;;;;;;13.57;8.07;;;;;;;17.06;56.18;102545.47;5048184;28;20050;-90
2021/03/31 09:02:19;;;;;;;16.67;8.82;;;;;;;17.41;55.33;102547.84;5046738;28;20028;-88
2021/03/31 09:04:46;;;;;;;13.20;7.53;;;;;;;17.16;54.40;102545.59;5062186;28;20163;-88
2021/03/31 09:07:14;;;;;;;14.32;8.52;;;;;;;17.41;55.12;102537.81;5046374;28;20032;-88
2021/03/31 09:09:41;;;;;;;13.52;7.85;;;;;;;17.42;55.29;102534.06;5047268;28;20028;-88
2021/03/31 09:12:11;;;;;;;12.20;8.70;;;;;;;17.25;54.92;102533.28;5062645;28;20039;-88
2021/03/31 09:14:42;;;;;;;12.57;8.30;;;;;;;17.88;54.38;102522.97;5045932;28;20013;-88
2021/03/31 09:17:10;;;;;;;11.98;7.25;;;;;;;18.14;52.98;102527.63;5049587;28;20559;-88
2021/03/31 09:19:38;;;;;;;11.65;7.63;;;;;;;18.24;52.59;102519.56;5059352;28;20097;-88
2021/03/31 09:22:11;;;;;;;13.88;7.65;;;;;;;18.36;51.34;102520.25;5046406;28;20029;-88
2021/03/31 09:24:47;;;;;;;12.65;7.32;;;;;;;18.51;52.09;102518.75;5047064;28;21998;-88
2021/03/31 09:27:19;;;;;;;12.32;7.88;;;;;;;18.61;50.75;102518.81;5033932;28;20032;-88
2021/03/31 09:29:46;;;;;;;12.90;8.02;;;;;;;18.56;51.65;102514.19;5047040;28;20286;-88
2021/03/31 09:32:15;;;;;;;12.50;8.20;;;;;;;18.83;51.46;102516.84;5047799;28;20035;-88
2021/03/31 09:34:42;;;;;;;17.98;7.70;;;;;;;19.02;50.54;102507.19;5055924;28;20036;-88
2021/03/31 09:37:12;;;;;;;14.88;7.88;;;;;;;19.20;50.18;102502.41;5045431;28;20433;-88
2021/03/31 09:39:57;;;;;;;11.90;7.20;;;;;;;18.81;49.20;102502.72;5046555;28;20402;-88
2021/03/31 09:42:34;;;;;;;13.80;7.30;;;;;;;19.18;48.29;102497.25;5064546;28;20039;-88
2021/03/31 09:45:01;;;;;;;12.00;7.63;;;;;;;19.14;47.46;102495.31;5044729;28;20127;-88
2021/03/31 09:47:29;;;;;;;11.27;7.38;;;;;;;19.06;46.36;102495.84;5058059;28;20408;-88
2021/03/31 09:49:57;;;;;;;17.23;7.20;;;;;;;19.22;46.97;102494.84;5050063;28;20024;-88
2021/03/31 09:52:31;;;;;;;16.20;6.80;;;;;;;19.39;45.75;102484.59;5047223;28;20076;-88
2021/03/31 09:55:05;;;;;;;14.55;6.95;;;;;;;19.55;44.17;102489.03;5047389;28;20035;-89
2021/03/31 09:57:30;;;;;;;10.95;6.53;;;;;;;19.50;43.00;102478.09;5059638;28;20095;-88
2021/03/31 10:00:17;;;;;;;13.00;7.68;;;;;;;19.17;42.45;102481.22;5034637;28;20064;-88
2021/03/31 10:02:44;;;;;;;11.38;6.78;;;;;;;19.16;44.79;102485.00;5039635;28;20032;-88
2021/03/31 10:05:16;;;;;;;13.00;7.63;;;;;;;19.08;45.45;102482.81;5052339;28;20657;-88
2021/03/31 10:07:42;;;;;;;13.35;6.63;;;;;;;18.96;44.62;102472.94;5046974;28;20040;-88
2021/03/31 10:10:08;;;;;;;14.60;7.40;;;;;;;19.44;44.99;102473.75;5047853;28;20501;-88
2021/03/31 10:12:35;;;;;;;13.43;6.90;;;;;;;19.66;44.32;102470.84;5048794;28;20393;-88
2021/03/31 10:15:04;;;;;;;14.52;7.22;;;;;;;19.06;44.22;102465.94;5045920;28;20111;-87
2021/03/31 10:17:32;;;;;;;16.40;7.00;;;;;;;19.43;43.04;102471.28;5050136;28;20055;-88
2021/03/31 10:20:11;;;;;;;12.98;6.70;;;;;;;19.76;40.64;102460.03;5043068;28;20113;-88
2021/03/31 10:22:37;;;;;;;15.80;6.35;;;;;;;20.13;38.79;102453.56;5055540;28;20096;-86
2021/03/31 10:25:06;;;;;;;15.48;6.88;;;;;;;20.10;38.71;102445.91;5050209;28;20036;-88
2021/03/31 10:27:43;;;;;;;16.48;8.00;;;;;;;20.30;38.62;102447.84;5048646;28;20436;-88
2021/03/31 10:30:27;;;;;;;13.73;7.38;;;;;;;20.19;39.89;102445.09;5040779;28;20028;-87
2021/03/31 10:32:53;;;;;;;12.63;6.72;;;;;;;20.29;39.70;102436.16;5057084;28;20497;-87
2021/03/31 10:35:50;;;;;;;13.27;7.10;;;;;;;20.17;40.25;102435.59;5035570;28;20016;-86
2021/03/31 10:38:46;;;;;;;14.00;6.82;;;;;;;20.77;38.61;102429.28;5063025;28;20490;-88
2021/03/31 10:54:13;;;;;;;17.20;8.18;;;;;;;20.87;37.18;102403.94;5060681;28;20060;-88
2021/03/31 10:56:47;;;;;;;13.35;8.15;;;;;;;20.74;36.38;102404.53;5051407;28;20107;-89
2021/03/31 10:59:12;;;;;;;18.88;9.02;;;;;;;20.79;35.53;102402.59;5048796;28;20387;-88
2021/03/31 11:01:38;;;;;;;21.58;9.70;;;;;;;20.83;35.62;102396.59;5043853;28;20031;-86
2021/03/31 11:04:04;;;;;;;19.35;8.65;;;;;;;20.47;34.56;102392.06;5062660;28;20471;-87
2021/03/31 11:06:31;;;;;;;16.60;7.88;;;;;;;21.10;35.35;102381.50;5068134;28;20044;-88
2021/03/31 11:08:56;;;;;;;20.35;7.80;;;;;;;21.49;34.74;102393.59;5045612;28;20158;-88
2021/03/31 11:11:22;;;;;;;18.23;7.65;;;;;;;21.65;32.16;102381.50;5055520;28;20433;-88
2021/03/31 11:13:48;;;;;;;20.25;7.90;;;;;;;21.81;32.20;102379.50;5046121;28;20477;-87
2021/03/31 11:16:14;;;;;;;13.98;7.30;;;;;;;21.77;30.86;102378.44;5047225;28;20035;-88
2021/03/31 11:18:57;;;;;;;18.00;8.73;;;;;;;21.47;32.96;102379.44;5044288;28;20028;-88
2021/03/31 11:26:57;;;;;;;53.78;28.35;;;;;;;21.67;33.32;102357.47;5064315;28;20027;-87
2021/03/31 11:29:22;;;;;;;102.10;56.25;;;;;;;22.29;33.60;102340.34;5044367;28;20037;-87
2021/03/31 11:31:48;;;;;;;48.97;25.63;;;;;;;22.10;31.42;102347.63;5044874;28;20041;-88
2021/03/31 11:34:14;;;;;;;81.75;44.15;;;;;;;22.36;31.07;102348.19;5046282;28;20035;-88
2021/03/31 11:36:39;;;;;;;38.83;22.80;;;;;;;22.39;28.44;102347.59;5051445;28;20028;-88
2021/03/31 11:39:05;;;;;;;15.75;7.32;;;;;;;22.65;29.26;102339.97;5065688;28;20024;-93
2021/03/31 11:41:31;;;;;;;14.77;6.95;;;;;;;22.63;28.90;102338.63;5047767;28;20316;-88
2021/03/31 11:43:56;;;;;;;13.63;6.80;;;;;;;22.53;28.00;102342.28;5049342;28;20028;-91
2021/03/31 11:46:22;;;;;;;13.27;6.70;;;;;;;22.59;29.60;102335.63;5057254;28;20021;-91
2021/03/31 11:48:48;;;;;;;13.43;7.30;;;;;;;22.18;29.12;102324.34;5045749;28;20094;-91
2021/03/31 11:51:13;;;;;;;18.17;8.00;;;;;;;22.17;29.63;102318.06;5052580;28;20467;-91
2021/03/31 11:53:42;;;;;;;17.35;7.65;;;;;;;21.87;28.50;102316.41;5046390;28;20033;-88
2021/03/31 11:56:08;;;;;;;14.43;6.60;;;;;;;22.54;29.58;102316.59;5048132;28;20504;-88
2021/03/31 11:58:34;;;;;;;14.88;6.93;;;;;;;23.10;29.11;102310.44;5048677;28;20043;-87
2021/03/31 12:00:59;;;;;;;18.02;7.32;;;;;;;23.33;28.24;102293.13;5043746;28;20028;-86
2021/03/31 12:03:25;;;;;;;14.18;7.68;;;;;;;24.43;26.12;102295.41;5044363;28;20470;-88
2021/03/31 12:05:50;;;;;;;14.73;7.50;;;;;;;26.30;25.07;102286.59;5065590;28;20392;-88
2021/03/31 12:08:17;;;;;;;17.13;7.85;;;;;;;28.69;21.81;102278.78;5044714;28;20517;-89
2021/03/31 12:10:45;;;;;;;13.95;7.53;;;;;;;29.68;20.57;102271.50;5041793;28;20115;-86
2021/03/31 12:13:15;;;;;;;14.13;7.32;;;;;;;29.49;19.71;102262.94;5043571;28;20060;-87
2021/03/31 12:15:40;;;;;;;14.80;7.28;;;;;;;32.07;18.65;102260.13;5045258;28;20512;-90
2021/03/31 12:18:14;;;;;;;16.40;7.75;;;;;;;32.99;17.33;102260.69;5050695;28;20032;-91
2021/03/31 12:20:42;;;;;;;16.98;8.45;;;;;;;31.06;17.70;102265.28;5050892;28;20032;-89
2021/03/31 12:23:08;;;;;;;13.95;7.82;;;;;;;32.83;17.23;102249.63;5048743;28;20394;-87
2021/03/31 12:25:34;;;;;;;15.60;7.95;;;;;;;28.77;18.98;102262.22;5053133;28;20040;-88
2021/03/31 12:28:01;;;;;;;14.95;6.65;;;;;;;31.41;18.24;102249.69;5050525;28;20039;-89
2021/03/31 12:30:27;;;;;;;15.10;8.52;;;;;;;33.08;16.81;102252.16;5044260;28;20024;-86
2021/03/31 12:32:53;;;;;;;15.52;8.25;;;;;;;32.34;16.07;102243.78;5044113;28;20370;-85
2021/03/31 12:35:20;;;;;;;16.10;8.30;;;;;;;31.86;19.01;102240.22;5046050;28;20027;-86
2021/03/31 12:37:48;;;;;;;15.55;7.53;;;;;;;32.81;18.10;102237.28;5050827;28;20049;-87
2021/03/31 12:40:13;;;;;;;15.15;8.85;;;;;;;33.20;16.83;102233.34;5050825;28;20024;-88
2021/03/31 12:42:40;;;;;;;16.83;8.30;;;;;;;33.88;16.93;102227.06;5055832;28;20035;-87
2021/03/31 12:45:07;;;;;;;17.50;9.18;;;;;;;34.66;15.88;102218.31;5050582;28;20806;-87
2021/03/31 12:47:34;;;;;;;19.13;8.57;;;;;;;36.91;14.53;102211.47;5047981;28;20512;-86
2021/03/31 12:52:51;;;;;;;19.05;9.63;;;;;;;31.08;19.81;102213.16;4954312;22;20051;-46
2021/03/31 12:55:31;;;;;;;18.88;9.70;;;;;;;34.97;15.68;102206.78;5072637;28;20081;-50
2021/03/31 12:58:02;;;;;;;16.77;8.90;;;;;;;36.02;14.70;102202.59;5078336;28;20090;-46
2021/03/31 13:00:28;;;;;;;19.02;9.38;;;;;;;36.94;13.72;102197.91;5079008;28;20024;-47
2021/03/31 13:02:53;;;;;;;21.27;9.68;;;;;;;38.78;12.66;102187.81;5075690;28;20029;-50
2021/03/31 13:05:19;;;;;;;15.70;9.50;;;;;;;34.27;15.62;102199.06;5114210;22;20063;-48
2021/03/31 13:07:45;;;;;;;22.83;9.55;;;;;;;36.23;14.99;102187.19;5089983;22;20038;-47
2021/03/31 13:10:10;;;;;;;16.50;9.73;;;;;;;37.10;14.03;102181.59;5093374;28;20070;-50
2021/03/31 13:12:45;;;;;;;15.20;9.15;;;;;;;35.96;14.75;102189.44;5093724;28;20075;-47
2021/03/31 13:15:24;;;;;;;17.27;8.85;;;;;;;37.45;13.40;102173.28;5092740;28;20016;-49
2021/03/31 13:26:16;;;;;;;17.67;9.38;;;;;;;37.73;12.91;102154.94;5034275;28;20036;-49
2021/03/31 13:31:45;;;;;;;18.80;9.93;;;;;;;37.99;12.21;102150.88;5046009;28;20048;-48
2021/03/31 13:34:19;;;;;;;17.23;10.15;;;;;;;35.34;13.48;102153.03;5077244;28;20038;-51